Small Craft Advisory
 click here for details
SBYC BurgeeSandy Bay Yacht Club
Weather Center


Nearby METAR Reports

Nearby METAR Reports

 

KBVY - Beverly, Massachusetts, USA
Distance from station: WSW 16mi, 26km
Updated: Thu, 19-Sep-2019 11:53am EDT
Clear
Clear
 Wind from N
Wind: N 8 mph , 13 km/h
Temperature: 64°F , 18°C
Dew Point: 41°F , 5°C
Humidity: 43%
Barometer: 30.34 inHg , 1027.4 hPa
Clouds: Clear
Visibility: 10 miles , 16 km
2019/09/19 15:53 KBVY 191553Z 01007KT 10SM CLR 18/05 A3034 RMK AO2 SLP268 T01780050
KLWM - Lawrence, Massachusetts, USA
Distance from station: W 27mi, 43km
Updated: Thu, 19-Sep-2019 11:54am EDT
Clear
Clear
 Wind from ENE
Wind: ENE 5 mph , 7 km/h
Temperature: 64°F , 18°C
Dew Point: 39°F , 4°C
Humidity: 40%
Barometer: 30.36 inHg , 1028.1 hPa
Clouds: Clear
Visibility: 10 miles , 16 km
2019/09/19 15:54 KLWM 191554Z 06004KT 10SM CLR 18/04 A3036 RMK AO2 SLP281 T01780039
 
KBOS - Boston, Massachusetts, USA
Distance from station: SW 29mi, 46km
Updated: Thu, 19-Sep-2019 11:54am EDT
Few Clouds
Few Clouds
 Wind from ENE
Wind: ENE 8 mph , 13 km/h
Temperature: 64°F , 18°C
Dew Point: 41°F , 5°C
Humidity: 43%
Barometer: 30.35 inHg , 1027.8 hPa
Clouds: Few Clouds
Visibility: 10 miles , 16 km
Cloud details: Few Clouds 5000 ft
2019/09/19 15:54 KBOS 191554Z 07007KT 10SM FEW050 18/05 A3035 RMK AO2 SLP276 T01780050
KPSM - Portsmouth/Pease, New Hampshire, USA
Distance from station: NNW 30mi, 48km
Updated: Thu, 19-Sep-2019 11:56am EDT
Clear
Clear
 Wind from N
Wind: N 5 mph , 7 km/h
Temperature: 64°F , 18°C
Dew Point: 36°F , 2°C
Humidity: 34%
Barometer: 30.33 inHg , 1027.1 hPa
Clouds: Clear
Visibility: 10 miles , 16 km
2019/09/19 15:56 KPSM 191556Z 35004KT 10SM CLR 18/02 A3033 RMK AO2A SLP274 T01800023
 
KMHT - Manchester, New Hampshire, USA
Distance from station: WNW 46mi, 73km
Updated: Thu, 19-Sep-2019 11:53am EDT
Clear
Clear
 Wind from NE
Wind: NE 7 mph , 11 km/h
Temperature: 64°F , 18°C
Dew Point: 37°F , 3°C
Humidity: 37%
Barometer: 30.33 inHg , 1027.1 hPa
Clouds: Clear
Visibility: 10 miles , 16 km
2019/09/19 15:53 KMHT 191553Z 04006KT 10SM CLR 18/03 A3033 RMK AO2 SLP286 T01830028
KPVC - Provincetown, Massachusetts, USA
Distance from station: SSE 46mi, 73km
Updated: Thu, 19-Sep-2019 11:56am EDT
Clear
Clear
 Wind from NE
Wind: NE 10 mph , 17 km/h
Temperature: 63°F , 17°C
Dew Point: 48°F , 9°C
Humidity: 59%
Barometer: 30.34 inHg , 1027.4 hPa
Clouds: Clear
Visibility: 10 miles , 16 km
2019/09/19 15:56 KPVC 191556Z AUTO 04009KT 10SM CLR 17/09 A3034 RMK AO2 SLP271 T01720089 PNO $
 
KDAW - Rochester, New Hampshire, USA
Distance from station: NNW 46mi, 74km
Updated: Thu, 19-Sep-2019 11:51am EDT
Clear
Clear
 Wind from varies
Wind: varies 6 mph , 9 km/h
Temperature: 64°F , 18°C
Dew Point: 39°F , 4°C
Humidity: 40%
Barometer: 30.33 inHg , 1027.1 hPa
Clouds: Clear
Visibility: 10 miles , 16 km
2019/09/19 15:51 KDAW 191551Z AUTO VRB05KT 10SM CLR 18/04 A3033 RMK AO2 SLP268 T01830039
KASH - Nashua/Boire Fld, New Hampshire, USA
Distance from station: W 47mi, 75km
Updated: Thu, 19-Sep-2019 11:56am EDT
Clear
Clear
 Wind from calm
Wind: Calm
Temperature: 64°F , 18°C
Dew Point: 39°F , 4°C
Humidity: 40%
Barometer: 30.35 inHg , 1027.8 hPa
Clouds: Clear
Visibility: 10 miles , 16 km
2019/09/19 15:56 KASH 191556Z 00000KT 10SM CLR 18/04 A3035 RMK AO2 SLP282 T01780039
 
KSFM - Sanford Muni, Maine, USA
Distance from station: N 50mi, 81km
Updated: Thu, 19-Sep-2019 11:56am EDT
Clear
Clear
 Wind from varies
Wind: varies 6 mph , 9 km/h
Temperature: 64°F , 18°C
Dew Point: 37°F , 3°C
Humidity: 37%
Barometer: 30.33 inHg , 1027.1 hPa
Clouds: Clear
Visibility: 10 miles , 16 km
2019/09/19 15:56 KSFM 191556Z AUTO VRB05KT 10SM CLR 18/03 A3033 RMK AO2 SLP276 T01780033

Metar display script from Saratoga-Weather.org

 



home

Copyright © Sandy Bay Yacht Club. All rights reserved.